Time;durP1;ratioP1;P1;durP2;ratioP2;P2;SDS_P1;SDS_P2;PMS_P1;PMS_P2;Temp;Humidity;BMP_temperature;BMP_pressure;BME280_temperature;BME280_humidity;BME280_pressure;Samples;Min_cycle;Max_cycle;Signal;HPM_P1;HPM_P2
2023/08/25 00:02:16;;;;;;;15.48;12.15;;;19.60;99.90;;;;;;5030386;28;20108;-66
2023/08/25 00:04:42;;;;;;;17.52;11.75;;;19.60;99.90;;;;;;5035378;28;20407;-66
2023/08/25 00:07:08;;;;;;;13.60;11.05;;;19.60;99.90;;;;;;5036795;28;20394;-66
2023/08/25 00:09:34;;;;;;;15.98;11.60;;;19.60;99.90;;;;;;5026215;28;20038;-66
2023/08/25 00:11:59;;;;;;;14.05;11.68;;;19.50;99.90;;;;;;5046528;28;20033;-66
2023/08/25 00:14:25;;;;;;;14.23;11.93;;;19.60;99.90;;;;;;5038222;28;20048;-66
2023/08/25 00:16:51;;;;;;;13.77;11.40;;;19.50;99.90;;;;;;5030233;28;20041;-66
2023/08/25 00:19:17;;;;;;;16.55;11.82;;;19.50;99.90;;;;;;5029894;28;20041;-66
2023/08/25 00:21:43;;;;;;;13.52;11.73;;;19.50;99.90;;;;;;5029494;28;20395;-66
2023/08/25 00:24:09;;;;;;;14.05;11.40;;;19.50;99.90;;;;;;5034278;28;20033;-66
2023/08/25 00:26:36;;;;;;;19.52;11.13;;;19.50;99.90;;;;;;5031945;28;20040;-66
2023/08/25 00:29:03;;;;;;;17.42;11.45;;;19.50;99.90;;;;;;5030676;28;20170;-66
2023/08/25 00:31:28;;;;;;;14.98;11.57;;;19.50;99.90;;;;;;5048518;28;20182;-66
2023/08/25 00:33:54;;;;;;;14.00;11.85;;;19.40;99.90;;;;;;5005184;28;20519;-66
2023/08/25 00:36:24;;;;;;;15.60;12.15;;;19.40;99.90;;;;;;5029191;28;20037;-66
2023/08/25 00:38:51;;;;;;;17.10;12.05;;;19.40;99.90;;;;;;5024097;28;20205;-66
2023/08/25 00:41:17;;;;;;;17.73;12.75;;;19.40;99.90;;;;;;5035479;28;20138;-66
2023/08/25 00:43:43;;;;;;;19.67;12.63;;;19.40;99.90;;;;;;5044116;28;20522;-66
2023/08/25 00:46:10;;;;;;;13.52;11.27;;;19.30;99.90;;;;;;5033458;28;20044;-66
2023/08/25 00:48:36;;;;;;;16.08;12.35;;;19.40;99.90;;;;;;5016021;28;20045;-66
2023/08/25 00:51:04;;;;;;;15.43;12.65;;;19.40;99.90;;;;;;5029673;28;20091;-66
2023/08/25 00:53:31;;;;;;;17.10;12.73;;;19.40;99.90;;;;;;5037233;28;20041;-66
2023/08/25 00:55:57;;;;;;;17.70;12.75;;;19.40;99.90;;;;;;5029070;28;20044;-66
2023/08/25 00:58:23;;;;;;;17.70;13.68;;;19.40;99.90;;;;;;5039381;28;20403;-66
2023/08/25 01:00:48;;;;;;;15.02;12.68;;;19.50;99.90;;;;;;5035406;28;20040;-66
2023/08/25 01:03:14;;;;;;;15.90;13.02;;;19.50;99.90;;;;;;5037448;28;20037;-66
2023/08/25 01:05:40;;;;;;;20.65;13.32;;;19.50;99.90;;;;;;5027100;28;20088;-66
2023/08/25 01:08:06;;;;;;;16.70;13.23;;;19.50;99.90;;;;;;5024875;28;20063;-66
2023/08/25 01:11:03;;;;;;;17.60;14.30;;;19.50;99.90;;;;;;5032076;28;20041;-66
2023/08/25 01:13:45;;;;;;;19.30;13.73;;;19.50;99.90;;;;;;5024860;28;20056;-66
2023/08/25 01:16:15;;;;;;;18.63;14.90;;;19.50;99.90;;;;;;5036601;28;20259;-66
2023/08/25 01:18:42;;;;;;;17.75;13.98;;;19.50;99.90;;;;;;5044103;22;20052;-65
2023/08/25 01:21:09;;;;;;;17.58;14.02;;;19.50;99.90;;;;;;5034617;28;20482;-65
2023/08/25 01:24:01;;;;;;;17.70;14.60;;;19.50;99.90;;;;;;5040959;28;20050;-65
2023/08/25 01:26:28;;;;;;;19.90;15.13;;;19.50;99.90;;;;;;5028029;28;20075;-65
2023/08/25 01:28:54;;;;;;;21.35;15.15;;;19.50;99.90;;;;;;5030220;28;20051;-64
2023/08/25 01:31:20;;;;;;;20.65;15.48;;;19.50;99.90;;;;;;5032364;28;20049;-64
2023/08/25 01:33:46;;;;;;;19.58;15.23;;;19.60;99.90;;;;;;5032675;28;20490;-65
2023/08/25 01:36:15;;;;;;;20.15;16.25;;;19.60;99.90;;;;;;5016630;28;20469;-62
2023/08/25 01:38:48;;;;;;;17.75;15.43;;;19.60;99.90;;;;;;5010213;28;20064;-65
2023/08/25 01:41:31;;;;;;;21.60;16.05;;;19.50;99.90;;;;;;5035719;28;20312;-65
2023/08/25 01:44:00;;;;;;;19.63;15.13;;;19.60;99.90;;;;;;5031589;28;20037;-65
2023/08/25 01:46:27;;;;;;;19.83;15.68;;;19.60;99.90;;;;;;5032264;28;20037;-64
2023/08/25 01:48:56;;;;;;;19.25;15.40;;;19.60;99.90;;;;;;5014023;28;20042;-65
2023/08/25 01:51:21;;;;;;;19.85;15.20;;;19.60;99.90;;;;;;5014184;28;20033;-65
2023/08/25 01:53:53;;;;;;;20.98;16.70;;;19.50;99.90;;;;;;5014501;28;20056;-64
2023/08/25 01:56:18;;;;;;;23.95;16.58;;;19.50;99.90;;;;;;5029222;28;20398;-63
2023/08/25 01:58:44;;;;;;;20.13;16.00;;;19.50;99.90;;;;;;5030484;28;20033;-65
2023/08/25 02:01:10;;;;;;;18.38;16.10;;;19.50;99.90;;;;;;5019857;28;20046;-65
2023/08/25 02:03:35;;;;;;;19.55;15.57;;;19.60;99.90;;;;;;5039073;28;20071;-65
2023/08/25 02:06:01;;;;;;;21.33;17.27;;;19.60;99.90;;;;;;5046371;28;20029;-65
2023/08/25 02:08:26;;;;;;;20.67;16.55;;;19.60;99.90;;;;;;5037302;28;20073;-64
2023/08/25 02:10:52;;;;;;;24.05;18.20;;;19.60;99.90;;;;;;5045479;28;20044;-65
2023/08/25 02:13:18;;;;;;;24.85;17.10;;;19.60;99.90;;;;;;5032098;28;20121;-64
2023/08/25 02:15:49;;;;;;;21.23;16.75;;;19.60;99.90;;;;;;5034235;28;20421;-65
2023/08/25 02:18:15;;;;;;;19.55;16.17;;;19.60;99.90;;;;;;5040431;28;20038;-65
2023/08/25 02:20:40;;;;;;;28.10;18.60;;;19.60;99.90;;;;;;5020155;28;20381;-65
2023/08/25 02:23:09;;;;;;;23.15;17.63;;;19.60;99.90;;;;;;5036812;28;20458;-65
2023/08/25 02:25:35;;;;;;;22.58;18.00;;;19.50;99.90;;;;;;5014022;28;20135;-65
2023/08/25 02:28:01;;;;;;;23.70;17.73;;;19.50;99.90;;;;;;5016819;28;20114;-65
2023/08/25 02:30:27;;;;;;;25.25;18.17;;;19.50;99.90;;;;;;5029584;28;20128;-62
2023/08/25 02:32:54;;;;;;;23.50;19.85;;;19.40;99.90;;;;;;5013532;28;20183;-65
2023/08/25 02:35:21;;;;;;;21.35;18.60;;;19.40;99.90;;;;;;5037530;28;20064;-65
2023/08/25 02:38:00;;;;;;;26.52;19.30;;;19.40;99.90;;;;;;5038985;28;20132;-65
2023/08/25 02:40:26;;;;;;;25.38;19.15;;;19.40;99.90;;;;;;5006460;28;20041;-63
2023/08/25 02:42:53;;;;;;;24.38;19.65;;;19.30;99.90;;;;;;5022838;28;20042;-64
2023/08/25 02:45:19;;;;;;;26.52;19.73;;;19.30;99.90;;;;;;5035410;28;20037;-65
2023/08/25 02:47:44;;;;;;;26.77;19.95;;;19.30;99.90;;;;;;5028992;28;20486;-65
2023/08/25 02:50:10;;;;;;;24.70;20.33;;;19.30;99.90;;;;;;5028130;28;20511;-64
2023/08/25 02:52:35;;;;;;;24.00;19.55;;;19.30;99.90;;;;;;5021038;28;20140;-65
2023/08/25 02:55:01;;;;;;;24.90;19.70;;;19.20;99.90;;;;;;5014477;28;20044;-65
2023/08/25 02:57:27;;;;;;;28.35;20.90;;;19.20;99.90;;;;;;5033821;28;20407;-65
2023/08/25 02:59:53;;;;;;;25.92;21.30;;;19.20;99.90;;;;;;5012033;28;20118;-64
2023/08/25 03:02:18;;;;;;;27.77;20.60;;;19.20;99.90;;;;;;5035905;28;20037;-64
2023/08/25 03:04:44;;;;;;;23.27;19.73;;;19.20;99.90;;;;;;5030996;28;20036;-65
2023/08/25 03:07:09;;;;;;;26.83;22.17;;;19.20;99.90;;;;;;5032794;28;20040;-64
2023/08/25 03:09:35;;;;;;;28.67;21.45;;;19.10;99.90;;;;;;5032476;28;20514;-65
2023/08/25 03:12:01;;;;;;;25.38;20.98;;;19.10;99.90;;;;;;5034908;28;20059;-64
2023/08/25 03:14:26;;;;;;;27.23;21.52;;;19.10;99.90;;;;;;5038308;28;20513;-64
2023/08/25 03:16:52;;;;;;;28.58;21.27;;;19.10;99.90;;;;;;5023940;28;20033;-65
2023/08/25 03:19:18;;;;;;;28.92;21.17;;;19.10;99.90;;;;;;5002559;28;20078;-63
2023/08/25 03:21:43;;;;;;;30.38;22.38;;;19.10;99.90;;;;;;5022000;28;20100;-64
2023/08/25 03:24:09;;;;;;;28.70;21.20;;;19.10;99.90;;;;;;5022760;28;20029;-65
2023/08/25 03:26:35;;;;;;;34.30;23.05;;;19.00;99.90;;;;;;5034269;28;20044;-64
2023/08/25 03:29:01;;;;;;;30.50;22.17;;;19.10;99.90;;;;;;5028237;28;20043;-65
2023/08/25 03:31:26;;;;;;;27.83;22.52;;;19.00;99.90;;;;;;5037226;28;20046;-65
2023/08/25 03:33:52;;;;;;;30.95;22.80;;;19.00;99.90;;;;;;5010239;28;20049;-65
2023/08/25 03:36:17;;;;;;;27.00;22.58;;;19.00;99.90;;;;;;5028152;28;20041;-65
2023/08/25 03:38:43;;;;;;;29.30;22.55;;;19.00;99.90;;;;;;5008019;28;20041;-62
2023/08/25 03:41:09;;;;;;;27.50;22.38;;;19.00;99.90;;;;;;5034462;28;20124;-65
2023/08/25 03:43:37;;;;;;;28.25;22.58;;;19.00;99.90;;;;;;5046927;28;20458;-65
2023/08/25 03:46:03;;;;;;;27.77;22.08;;;18.90;99.90;;;;;;5036130;28;20071;-65
2023/08/25 03:48:29;;;;;;;29.00;22.38;;;18.90;99.90;;;;;;5008162;28;20037;-64
2023/08/25 03:50:55;;;;;;;33.90;23.08;;;18.90;99.90;;;;;;5040128;28;20392;-65
2023/08/25 03:53:21;;;;;;;31.55;23.00;;;18.90;99.90;;;;;;5042811;28;20128;-65
2023/08/25 03:55:47;;;;;;;31.30;23.50;;;18.90;99.90;;;;;;5036392;28;20153;-65
2023/08/25 03:58:13;;;;;;;32.03;24.23;;;18.90;99.90;;;;;;5036191;28;20045;-64
2023/08/25 04:00:38;;;;;;;30.60;22.95;;;18.90;99.90;;;;;;5023896;28;20073;-65
2023/08/25 04:03:06;;;;;;;31.88;23.92;;;18.80;99.90;;;;;;5027911;28;20119;-64
2023/08/25 04:05:32;;;;;;;33.60;24.25;;;18.80;99.90;;;;;;5035618;28;20076;-65
2023/08/25 04:07:58;;;;;;;31.60;23.92;;;18.80;99.90;;;;;;5032701;28;20516;-65
2023/08/25 04:10:23;;;;;;;33.67;23.85;;;18.80;99.90;;;;;;5043846;28;20127;-65
2023/08/25 04:12:49;;;;;;;29.90;23.65;;;18.80;99.90;;;;;;5035286;28;20087;-65
2023/08/25 04:15:15;;;;;;;31.42;24.73;;;18.80;99.90;;;;;;5045420;28;20041;-65
2023/08/25 04:17:40;;;;;;;31.92;25.15;;;18.70;99.90;;;;;;5032838;28;20175;-64
2023/08/25 04:20:06;;;;;;;30.67;24.05;;;18.70;99.90;;;;;;5019065;28;20029;-65
2023/08/25 04:22:32;;;;;;;31.15;24.52;;;18.70;99.90;;;;;;5015489;28;20046;-65
2023/08/25 04:24:58;;;;;;;32.85;25.10;;;18.70;99.90;;;;;;5033361;28;20042;-65
2023/08/25 04:27:23;;;;;;;32.30;24.23;;;18.70;99.90;;;;;;5025112;28;20144;-65
2023/08/25 04:29:51;;;;;;;34.08;25.58;;;18.70;99.90;;;;;;5026666;28;20120;-65
2023/08/25 04:32:17;;;;;;;33.20;25.20;;;18.60;99.90;;;;;;5037404;28;20199;-64
2023/08/25 04:34:42;;;;;;;32.60;25.63;;;18.60;99.90;;;;;;5035347;28;20116;-65
2023/08/25 04:37:08;;;;;;;32.83;25.27;;;18.60;99.90;;;;;;5031733;28;20116;-65
2023/08/25 04:39:34;;;;;;;30.88;24.48;;;18.60;99.90;;;;;;5032076;28;20080;-65
2023/08/25 04:42:00;;;;;;;34.30;26.85;;;18.60;99.90;;;;;;5016291;28;20034;-64
2023/08/25 04:44:25;;;;;;;36.88;26.00;;;18.60;99.90;;;;;;5039609;28;20037;-65
2023/08/25 04:46:51;;;;;;;38.50;26.23;;;18.50;99.90;;;;;;5015910;28;20041;-65
2023/08/25 04:49:17;;;;;;;33.45;26.30;;;18.50;99.90;;;;;;5038155;28;20041;-65
2023/08/25 04:51:42;;;;;;;35.47;26.45;;;18.60;99.90;;;;;;5032657;28;20069;-65
2023/08/25 04:54:09;;;;;;;38.47;27.58;;;18.50;99.90;;;;;;5037029;28;20032;-65
2023/08/25 04:56:35;;;;;;;39.03;27.77;;;18.60;99.90;;;;;;5036723;28;20051;-65
2023/08/25 04:59:00;;;;;;;38.00;28.02;;;18.60;99.90;;;;;;5030415;28;20045;-65
2023/08/25 05:01:26;;;;;;;37.65;27.65;;;18.60;99.90;;;;;;5032120;28;20045;-65
2023/08/25 05:03:52;;;;;;;42.88;30.17;;;18.60;99.90;;;;;;5034648;28;20040;-63
2023/08/25 05:06:17;;;;;;;45.88;31.48;;;18.60;99.90;;;;;;5019267;28;20120;-65
2023/08/25 05:08:44;;;;;;;41.75;29.55;;;18.60;99.90;;;;;;5021823;28;20054;-65
2023/08/25 05:11:10;;;;;;;42.03;30.38;;;18.60;99.90;;;;;;5014681;28;20037;-65
2023/08/25 05:13:35;;;;;;;49.58;33.15;;;18.60;99.90;;;;;;5021529;28;20243;-65
2023/08/25 05:16:01;;;;;;;44.38;31.50;;;18.60;99.90;;;;;;5013929;28;20122;-65
2023/08/25 05:18:26;;;;;;;74.75;33.78;;;18.70;99.90;;;;;;5032510;28;20034;-65
2023/08/25 05:21:02;;;;;;;46.60;32.33;;;18.70;99.90;;;;;;5025731;28;20069;-63
2023/08/25 05:23:28;;;;;;;52.17;33.90;;;18.70;99.90;;;;;;5036028;28;20045;-65
2023/08/25 05:25:55;;;;;;;70.85;34.60;;;18.70;99.90;;;;;;5019849;28;20541;-65
2023/08/25 05:28:21;;;;;;;54.15;33.65;;;18.70;99.90;;;;;;5013334;28;20091;-65
2023/08/25 05:30:48;;;;;;;49.95;34.17;;;18.80;99.90;;;;;;5038524;28;20115;-65
2023/08/25 05:33:14;;;;;;;50.53;33.92;;;18.80;99.90;;;;;;5037535;28;20411;-65
2023/08/25 05:35:40;;;;;;;46.90;31.85;;;18.80;99.90;;;;;;5044559;28;20110;-65
2023/08/25 05:38:06;;;;;;;54.38;33.95;;;18.80;99.90;;;;;;5023952;28;20117;-65
2023/08/25 05:40:32;;;;;;;47.08;32.78;;;18.80;99.90;;;;;;5034095;28;20034;-65
2023/08/25 05:42:57;;;;;;;48.72;32.00;;;18.80;99.90;;;;;;5043013;28;20045;-64
2023/08/25 05:45:23;;;;;;;47.92;33.35;;;18.90;99.90;;;;;;5042900;28;20030;-65
2023/08/25 05:47:49;;;;;;;44.47;32.00;;;18.90;99.90;;;;;;5011551;28;20045;-65
2023/08/25 05:50:15;;;;;;;48.03;32.85;;;19.00;99.90;;;;;;5035077;28;20047;-65
2023/08/25 05:52:41;;;;;;;46.08;32.53;;;19.00;99.90;;;;;;5032128;28;20053;-62
2023/08/25 05:55:12;;;;;;;51.35;34.10;;;19.10;99.90;;;;;;5046942;28;20053;-65
2023/08/25 05:57:37;;;;;;;45.00;32.42;;;19.20;99.90;;;;;;5026748;28;20034;-65
2023/08/25 06:00:05;;;;;;;44.63;31.90;;;19.20;99.90;;;;;;5030153;28;20036;-62
2023/08/25 06:02:32;;;;;;;46.97;32.70;;;19.20;99.90;;;;;;5019664;28;20045;-64
2023/08/25 06:04:58;;;;;;;45.45;32.72;;;19.20;99.90;;;;;;5029936;28;20171;-64
2023/08/25 06:07:23;;;;;;;45.28;33.47;;;19.30;99.90;;;;;;5038194;28;20512;-62
2023/08/25 06:09:49;;;;;;;45.47;32.47;;;19.30;99.90;;;;;;5033922;28;20499;-65
2023/08/25 06:12:15;;;;;;;47.50;33.30;;;19.40;99.90;;;;;;5031289;28;20041;-65
2023/08/25 06:14:40;;;;;;;44.95;32.38;;;19.40;99.90;;;;;;5028881;28;20041;-64
2023/08/25 06:17:06;;;;;;;44.65;33.95;;;19.40;99.90;;;;;;5033756;28;20499;-64
2023/08/25 06:19:33;;;;;;;46.33;33.08;;;19.40;99.90;;;;;;5025835;28;20030;-65
2023/08/25 06:21:58;;;;;;;46.50;32.97;;;19.50;99.90;;;;;;5029724;28;20499;-65
2023/08/25 06:24:25;;;;;;;49.58;33.90;;;19.50;99.90;;;;;;5030147;28;20065;-64
2023/08/25 06:26:51;;;;;;;45.92;32.85;;;19.50;99.90;;;;;;5011310;28;20046;-65
2023/08/25 06:29:17;;;;;;;44.40;33.35;;;19.50;99.90;;;;;;5036241;28;20045;-65
2023/08/25 06:31:43;;;;;;;49.58;34.50;;;19.50;99.90;;;;;;5024274;28;20032;-65
2023/08/25 06:34:09;;;;;;;47.83;34.13;;;19.60;99.90;;;;;;5031464;28;20096;-62
2023/08/25 06:36:34;;;;;;;51.10;34.83;;;19.60;99.90;;;;;;5026385;28;20061;-64
2023/08/25 06:39:00;;;;;;;46.83;34.55;;;19.50;99.90;;;;;;5012055;28;20532;-65
2023/08/25 06:41:26;;;;;;;51.40;34.17;;;19.60;99.90;;;;;;5031532;28;20128;-65
2023/08/25 06:43:53;;;;;;;47.35;33.97;;;19.60;99.90;;;;;;5030908;28;20152;-65
2023/08/25 06:46:19;;;;;;;44.95;32.53;;;19.50;99.90;;;;;;5033647;28;20041;-63
2023/08/25 06:48:45;;;;;;;53.95;35.75;;;19.50;99.90;;;;;;5015459;28;20042;-65
2023/08/25 06:51:11;;;;;;;46.13;33.78;;;19.50;99.90;;;;;;5036072;28;20056;-63
2023/08/25 06:53:37;;;;;;;50.50;33.75;;;19.50;99.90;;;;;;5038894;28;20411;-65
2023/08/25 06:56:03;;;;;;;46.00;33.33;;;19.50;99.90;;;;;;5039232;28;20041;-65
2023/08/25 06:58:28;;;;;;;44.03;32.38;;;19.50;99.90;;;;;;5038016;28;20041;-65
2023/08/25 07:00:54;;;;;;;46.28;32.53;;;19.60;99.90;;;;;;5039215;28;20041;-65
2023/08/25 07:03:20;;;;;;;46.83;33.33;;;19.60;99.90;;;;;;5033226;28;20049;-65
2023/08/25 07:05:46;;;;;;;44.40;31.30;;;19.60;99.90;;;;;;5019406;28;20037;-65
2023/08/25 07:08:12;;;;;;;43.17;31.63;;;19.70;99.90;;;;;;5032303;28;20426;-65
2023/08/25 07:10:38;;;;;;;45.85;32.47;;;19.70;99.90;;;;;;5023293;28;20037;-64
2023/08/25 07:13:04;;;;;;;43.03;31.55;;;19.80;99.90;;;;;;5029150;28;20504;-65
2023/08/25 07:15:30;;;;;;;46.67;32.63;;;19.80;99.90;;;;;;5013132;28;20644;-65
2023/08/25 07:17:56;;;;;;;42.45;30.00;;;19.90;99.90;;;;;;5029004;28;20076;-63
2023/08/25 07:20:21;;;;;;;41.40;30.77;;;19.90;99.90;;;;;;5024856;23;20069;-66
2023/08/25 07:22:50;;;;;;;43.78;31.35;;;20.00;99.90;;;;;;5019918;28;20537;-66
2023/08/25 07:25:15;;;;;;;39.72;30.20;;;20.10;99.90;;;;;;5019606;28;20084;-66
2023/08/25 07:27:41;;;;;;;41.78;30.40;;;20.10;99.90;;;;;;5020500;28;20069;-66
2023/08/25 07:30:07;;;;;;;41.83;31.33;;;20.20;99.90;;;;;;5011890;28;20128;-66
2023/08/25 07:32:33;;;;;;;41.13;31.33;;;20.20;99.90;;;;;;5023742;28;20111;-67
2023/08/25 07:34:58;;;;;;;40.88;30.40;;;20.30;99.90;;;;;;5008141;28;20403;-66
2023/08/25 07:37:25;;;;;;;41.13;29.30;;;20.30;99.90;;;;;;5034209;28;20102;-66
2023/08/25 07:39:52;;;;;;;38.35;29.13;;;20.40;99.90;;;;;;5025769;28;20065;-66
2023/08/25 07:42:18;;;;;;;36.15;28.08;;;20.40;99.90;;;;;;5034032;28;20423;-66
2023/08/25 07:44:46;;;;;;;33.78;27.42;;;20.40;99.90;;;;;;5037818;28;20465;-66
2023/08/25 07:47:11;;;;;;;40.42;30.23;;;20.40;99.90;;;;;;5024851;28;20029;-66
2023/08/25 07:49:37;;;;;;;42.70;30.90;;;20.50;99.90;;;;;;5024702;28;20038;-66
2023/08/25 07:52:03;;;;;;;35.47;29.08;;;20.50;99.90;;;;;;5029359;28;20040;-66
2023/08/25 07:54:28;;;;;;;40.05;30.02;;;20.50;99.90;;;;;;5028816;28;20041;-66
2023/08/25 07:56:54;;;;;;;38.67;29.45;;;20.50;99.90;;;;;;5012128;28;20037;-66
2023/08/25 07:59:20;;;;;;;36.33;28.67;;;20.60;99.90;;;;;;5028543;28;20037;-66
2023/08/25 08:01:46;;;;;;;37.88;29.52;;;20.70;99.90;;;;;;5004647;28;20042;-66
2023/08/25 08:04:12;;;;;;;37.65;29.65;;;20.70;99.90;;;;;;5037829;28;20067;-66
2023/08/25 08:06:38;;;;;;;42.35;29.92;;;20.70;99.90;;;;;;5039135;28;20037;-66
2023/08/25 08:09:06;;;;;;;37.88;28.58;;;20.80;99.90;;;;;;5028013;28;20037;-66
2023/08/25 08:11:34;;;;;;;40.92;29.38;;;20.90;99.90;;;;;;5009152;28;20051;-65
2023/08/25 08:14:00;;;;;;;33.42;27.20;;;20.90;99.90;;;;;;5023758;28;20041;-66
2023/08/25 08:16:26;;;;;;;35.47;28.55;;;20.90;99.90;;;;;;5014783;28;20084;-66
2023/08/25 08:18:52;;;;;;;35.25;28.02;;;20.90;99.90;;;;;;5009044;28;20048;-66
2023/08/25 08:21:19;;;;;;;35.17;26.40;;;20.90;99.90;;;;;;5026705;28;20038;-66
2023/08/25 08:23:44;;;;;;;34.83;27.83;;;20.90;99.90;;;;;;5009785;28;20510;-66
2023/08/25 08:26:10;;;;;;;33.35;26.73;;;20.90;99.90;;;;;;5029388;28;20084;-66
2023/08/25 08:28:36;;;;;;;32.65;25.73;;;20.90;99.90;;;;;;5021978;28;20038;-66
2023/08/25 08:31:05;;;;;;;31.73;25.52;;;20.90;99.90;;;;;;5024933;28;20631;-66
2023/08/25 08:33:31;;;;;;;30.17;24.40;;;20.90;99.90;;;;;;5007741;28;20140;-65
2023/08/25 08:35:58;;;;;;;33.03;25.77;;;20.90;99.90;;;;;;5027127;28;20030;-66
2023/08/25 08:38:23;;;;;;;30.13;24.58;;;20.90;99.90;;;;;;5030711;28;20037;-66
2023/08/25 08:40:50;;;;;;;32.75;24.70;;;20.90;99.90;;;;;;5040154;28;20219;-66
2023/08/25 08:43:19;;;;;;;31.05;24.55;;;20.90;99.90;;;;;;5021245;28;20042;-66
2023/08/25 08:45:51;;;;;;;32.50;23.85;;;20.90;99.90;;;;;;5014429;28;20045;-66
2023/08/25 08:48:19;;;;;;;31.98;26.17;;;20.90;99.90;;;;;;5021890;28;20045;-66
2023/08/25 08:50:45;;;;;;;29.50;24.67;;;21.00;99.90;;;;;;5028133;28;20037;-66
2023/08/25 08:53:13;;;;;;;33.08;24.48;;;21.10;99.90;;;;;;5033020;28;20411;-66
2023/08/25 08:55:40;;;;;;;32.25;25.30;;;21.00;99.90;;;;;;5027424;28;20121;-66
2023/08/25 08:58:05;;;;;;;32.05;24.15;;;21.10;99.90;;;;;;5035854;28;20037;-66
2023/08/25 09:00:32;;;;;;;27.85;22.60;;;21.10;99.90;;;;;;5033020;28;20043;-66
2023/08/25 09:03:00;;;;;;;29.50;23.90;;;21.10;99.90;;;;;;5030391;28;20122;-66
2023/08/25 09:05:27;;;;;;;30.35;23.25;;;21.20;99.90;;;;;;5041319;28;20130;-66
2023/08/25 09:07:58;;;;;;;26.58;21.70;;;21.20;99.90;;;;;;5034056;28;20451;-66
2023/08/25 09:10:25;;;;;;;27.48;22.33;;;21.20;99.90;;;;;;5028805;28;20137;-66
2023/08/25 09:12:52;;;;;;;28.05;22.45;;;21.20;99.90;;;;;;5026099;28;20467;-66
2023/08/25 09:15:31;;;;;;;26.13;22.10;;;21.20;99.90;;;;;;5007079;28;20125;-66
2023/08/25 09:18:01;;;;;;;27.92;21.60;;;21.20;99.90;;;;;;5027441;28;20084;-66
2023/08/25 09:20:28;;;;;;;27.15;22.50;;;21.20;99.90;;;;;;5019587;28;20049;-66
2023/08/25 09:22:55;;;;;;;28.65;22.27;;;21.20;99.90;;;;;;5022385;28;20078;-65
2023/08/25 09:25:22;;;;;;;28.75;23.05;;;21.10;99.90;;;;;;5008033;28;20038;-65
2023/08/25 09:27:47;;;;;;;24.98;21.00;;;21.10;99.90;;;;;;5030413;28;20124;-66
2023/08/25 09:30:14;;;;;;;29.08;22.40;;;21.10;99.90;;;;;;5031797;28;20124;-65
2023/08/25 09:32:40;;;;;;;32.05;23.02;;;21.10;99.90;;;;;;5047294;28;20052;-66
2023/08/25 09:35:11;;;;;;;27.30;21.73;;;21.10;99.90;;;;;;5026588;28;20033;-65
2023/08/25 09:37:41;;;;;;;27.25;21.95;;;21.10;99.90;;;;;;5007954;28;20395;-66
2023/08/25 09:40:14;;;;;;;28.70;21.42;;;21.10;99.90;;;;;;5039949;28;20944;-65
2023/08/25 09:42:40;;;;;;;29.42;22.20;;;21.10;99.90;;;;;;5023607;28;20325;-66
2023/08/25 09:45:06;;;;;;;30.42;23.00;;;21.10;99.90;;;;;;5025137;28;20083;-65
2023/08/25 09:47:32;;;;;;;29.73;22.10;;;21.10;99.90;;;;;;5037844;28;20048;-66
2023/08/25 09:49:58;;;;;;;27.33;21.77;;;21.10;99.90;;;;;;5024740;28;20029;-66
2023/08/25 09:52:29;;;;;;;31.33;23.27;;;21.10;99.90;;;;;;5026684;28;20569;-66
2023/08/25 09:54:55;;;;;;;27.20;22.08;;;21.20;99.90;;;;;;5033557;28;20083;-66
2023/08/25 09:57:23;;;;;;;29.48;21.85;;;21.10;99.90;;;;;;5030238;28;20050;-67
2023/08/25 09:59:49;;;;;;;27.42;21.90;;;21.10;99.90;;;;;;5016632;28;20080;-66
2023/08/25 10:02:16;;;;;;;31.25;21.10;;;21.20;99.90;;;;;;5022501;28;20049;-65
2023/08/25 10:04:42;;;;;;;24.70;20.70;;;21.20;99.90;;;;;;5022095;28;20492;-66
2023/08/25 10:07:08;;;;;;;25.17;20.35;;;21.40;99.90;;;;;;5020871;28;20033;-66
2023/08/25 10:09:33;;;;;;;28.33;20.20;;;21.70;99.90;;;;;;5010008;28;20046;-66
2023/08/25 10:12:02;;;;;;;23.13;19.40;;;21.90;99.90;;;;;;5027331;28;20038;-66
2023/08/25 10:14:32;;;;;;;24.60;19.13;;;22.00;99.90;;;;;;5008673;28;20037;-66
2023/08/25 10:17:01;;;;;;;23.25;18.08;;;22.10;99.90;;;;;;5029327;28;20488;-67
2023/08/25 10:19:28;;;;;;;21.92;17.13;;;22.00;99.90;;;;;;5027850;28;20038;-67
2023/08/25 10:21:58;;;;;;;22.80;16.40;;;22.10;99.90;;;;;;5022166;28;20284;-66
2023/08/25 10:24:28;;;;;;;24.42;17.15;;;22.10;99.90;;;;;;5027068;28;20037;-67
2023/08/25 10:26:54;;;;;;;21.80;16.20;;;22.20;99.90;;;;;;5007931;28;20052;-67
2023/08/25 10:29:22;;;;;;;22.85;16.15;;;22.30;99.90;;;;;;5031011;28;20120;-67
2023/08/25 10:31:50;;;;;;;23.30;18.00;;;22.30;99.90;;;;;;5002893;28;20049;-67
2023/08/25 10:34:36;;;;;;;20.70;15.98;;;22.20;99.90;;;;;;5018128;28;20049;-67
2023/08/25 10:37:07;;;;;;;21.65;14.38;;;22.20;99.90;;;;;;5037556;28;20088;-67
2023/08/25 10:39:56;;;;;;;21.90;15.20;;;22.10;99.90;;;;;;5033135;28;20037;-67
2023/08/25 10:42:29;;;;;;;18.83;15.23;;;22.00;99.90;;;;;;5024915;28;20041;-67
2023/08/25 10:44:56;;;;;;;21.80;15.10;;;21.90;99.90;;;;;;5034539;28;20104;-67
2023/08/25 10:47:23;;;;;;;23.42;15.98;;;21.90;99.90;;;;;;5030592;28;20037;-68
2023/08/25 10:49:56;;;;;;;22.38;16.73;;;21.80;99.90;;;;;;5027022;28;20401;-67
2023/08/25 10:52:22;;;;;;;22.48;16.88;;;21.70;99.90;;;;;;5033322;28;20068;-67
2023/08/25 10:54:52;;;;;;;21.77;16.38;;;21.70;99.90;;;;;;5016809;28;20041;-69
2023/08/25 10:57:27;;;;;;;27.27;17.60;;;21.70;99.90;;;;;;5042592;28;20452;-66
2023/08/25 10:59:57;;;;;;;21.92;16.95;;;21.60;99.90;;;;;;5031346;28;20065;-66
2023/08/25 11:02:36;;;;;;;22.33;16.83;;;21.60;99.90;;;;;;5035362;28;20033;-66
2023/08/25 11:05:33;;;;;;;26.50;18.05;;;21.60;99.90;;;;;;5038403;28;20399;-66
2023/08/25 11:08:03;;;;;;;23.52;18.70;;;21.60;99.90;;;;;;5015792;28;20487;-67
2023/08/25 11:10:33;;;;;;;24.52;18.63;;;21.60;99.90;;;;;;5024486;28;20530;-67
2023/08/25 11:13:00;;;;;;;24.98;19.70;;;21.70;99.90;;;;;;5006159;28;20041;-67
2023/08/25 11:15:26;;;;;;;25.88;19.67;;;21.70;99.90;;;;;;5026787;28;20076;-66
2023/08/25 11:17:52;;;;;;;29.45;21.40;;;21.80;99.90;;;;;;5023901;28;20045;-66
2023/08/25 11:20:19;;;;;;;25.08;20.65;;;21.80;99.90;;;;;;4999865;28;20037;-66
2023/08/25 11:22:54;;;;;;;29.88;20.27;;;21.80;99.90;;;;;;5029966;28;20095;-67
2023/08/25 11:25:20;;;;;;;29.42;21.40;;;21.90;99.90;;;;;;5027177;28;20051;-66
2023/08/25 11:27:49;;;;;;;26.98;20.92;;;21.90;99.90;;;;;;5028553;28;20120;-66
2023/08/25 11:30:16;;;;;;;26.05;20.77;;;22.10;99.90;;;;;;5023851;28;20073;-67
2023/08/25 11:32:44;;;;;;;31.92;24.02;;;22.10;99.90;;;;;;5006213;28;20064;-67
2023/08/25 11:35:10;;;;;;;27.38;20.88;;;22.20;99.90;;;;;;5023589;28;20095;-66
2023/08/25 11:37:36;;;;;;;29.50;22.55;;;22.20;99.90;;;;;;5022822;28;20041;-66
2023/08/25 11:40:03;;;;;;;26.35;22.33;;;22.30;99.90;;;;;;5031972;28;20475;-66
2023/08/25 11:42:29;;;;;;;27.52;22.38;;;22.30;99.90;;;;;;5046238;28;20499;-66
2023/08/25 11:44:54;;;;;;;30.65;23.33;;;22.20;99.90;;;;;;5033767;28;20045;-66
2023/08/25 11:47:22;;;;;;;27.80;22.13;;;22.20;99.90;;;;;;5033552;28;20037;-66
2023/08/25 11:49:50;;;;;;;28.30;22.88;;;22.10;99.90;;;;;;5038575;28;20554;-66
2023/08/25 11:52:16;;;;;;;28.23;22.75;;;22.10;99.90;;;;;;5040182;28;20041;-66
2023/08/25 11:54:49;;;;;;;30.83;24.30;;;22.00;99.90;;;;;;5040603;28;20053;-66
2023/08/25 11:57:15;;;;;;;27.98;21.05;;;22.00;99.90;;;;;;5035316;28;20461;-66
2023/08/25 11:59:52;;;;;;;27.23;21.60;;;21.90;99.90;;;;;;5038350;28;20060;-66
2023/08/25 12:02:19;;;;;;;30.77;21.95;;;21.90;99.90;;;;;;5037487;28;20045;-66
2023/08/25 12:04:55;;;;;;;28.67;20.95;;;21.90;99.90;;;;;;5034606;28;20038;-66
2023/08/25 12:07:24;;;;;;;28.00;22.58;;;21.80;99.90;;;;;;5036434;28;20045;-66
2023/08/25 12:09:58;;;;;;;32.53;22.23;;;21.80;99.90;;;;;;5030425;28;20041;-66
2023/08/25 12:12:24;;;;;;;24.02;17.73;;;21.70;99.90;;;;;;5034865;28;20067;-66
2023/08/25 12:14:53;;;;;;;21.83;16.33;;;21.60;99.90;;;;;;5039210;28;20028;-66
2023/08/25 12:17:27;;;;;;;17.90;13.57;;;21.60;99.90;;;;;;5029746;28;20034;-66
2023/08/25 12:19:54;;;;;;;15.75;12.35;;;21.50;99.90;;;;;;5035748;28;20038;-66
2023/08/25 12:22:19;;;;;;;14.85;11.80;;;21.50;99.90;;;;;;5012616;28;20128;-65
2023/08/25 12:24:46;;;;;;;17.92;10.95;;;21.50;99.90;;;;;;5025561;28;20476;-66
2023/08/25 12:27:12;;;;;;;14.38;10.85;;;21.40;99.90;;;;;;5034721;28;20083;-65
2023/08/25 12:29:38;;;;;;;15.90;11.15;;;21.40;99.90;;;;;;5039997;28;20118;-66